sensor_id;sensor_type;location;lat;lon;timestamp;temperature;humidity
15072;DHT22;7635;56.696;13.002;2023-11-21T00:01:54;4.00;99.90
15072;DHT22;7635;56.696;13.002;2023-11-21T00:04:22;4.00;99.90
15072;DHT22;7635;56.696;13.002;2023-11-21T00:06:50;4.00;99.90
15072;DHT22;7635;56.696;13.002;2023-11-21T00:09:17;4.00;99.90
15072;DHT22;7635;56.696;13.002;2023-11-21T00:11:45;4.00;99.90
15072;DHT22;7635;56.696;13.002;2023-11-21T00:14:12;4.00;99.90
15072;DHT22;7635;56.696;13.002;2023-11-21T00:16:40;4.00;99.90
15072;DHT22;7635;56.696;13.002;2023-11-21T00:19:07;4.00;99.90
15072;DHT22;7635;56.696;13.002;2023-11-21T00:21:33;4.00;99.90
15072;DHT22;7635;56.696;13.002;2023-11-21T00:24:01;4.00;99.90
15072;DHT22;7635;56.696;13.002;2023-11-21T00:26:28;4.00;99.90
15072;DHT22;7635;56.696;13.002;2023-11-21T00:28:56;4.00;99.90
15072;DHT22;7635;56.696;13.002;2023-11-21T00:31:22;4.00;99.90
15072;DHT22;7635;56.696;13.002;2023-11-21T00:33:49;4.00;99.90
15072;DHT22;7635;56.696;13.002;2023-11-21T00:36:15;4.00;99.90
15072;DHT22;7635;56.696;13.002;2023-11-21T00:38:42;4.00;99.90
15072;DHT22;7635;56.696;13.002;2023-11-21T00:41:10;4.00;99.90
15072;DHT22;7635;56.696;13.002;2023-11-21T00:43:37;4.00;99.90
15072;DHT22;7635;56.696;13.002;2023-11-21T00:46:04;4.00;99.90
15072;DHT22;7635;56.696;13.002;2023-11-21T00:48:32;3.90;99.90
15072;DHT22;7635;56.696;13.002;2023-11-21T00:50:59;3.90;99.90
15072;DHT22;7635;56.696;13.002;2023-11-21T00:53:26;3.90;99.90
15072;DHT22;7635;56.696;13.002;2023-11-21T00:55:53;3.90;99.90
15072;DHT22;7635;56.696;13.002;2023-11-21T00:58:23;3.90;99.90
15072;DHT22;7635;56.696;13.002;2023-11-21T01:00:50;3.90;99.90
15072;DHT22;7635;56.696;13.002;2023-11-21T01:03:17;3.90;99.90
15072;DHT22;7635;56.696;13.002;2023-11-21T01:05:44;3.90;99.90
15072;DHT22;7635;56.696;13.002;2023-11-21T01:08:11;3.90;99.90
15072;DHT22;7635;56.696;13.002;2023-11-21T01:10:37;3.90;99.90
15072;DHT22;7635;56.696;13.002;2023-11-21T01:13:04;3.90;99.90
15072;DHT22;7635;56.696;13.002;2023-11-21T01:15:34;3.90;99.90
15072;DHT22;7635;56.696;13.002;2023-11-21T01:18:00;3.90;99.90
15072;DHT22;7635;56.696;13.002;2023-11-21T01:20:27;3.90;99.90
15072;DHT22;7635;56.696;13.002;2023-11-21T01:22:54;3.90;99.90
15072;DHT22;7635;56.696;13.002;2023-11-21T01:25:21;3.90;99.90
15072;DHT22;7635;56.696;13.002;2023-11-21T01:27:47;3.80;99.90
15072;DHT22;7635;56.696;13.002;2023-11-21T01:30:14;3.80;99.90
15072;DHT22;7635;56.696;13.002;2023-11-21T01:32:43;3.80;99.90
15072;DHT22;7635;56.696;13.002;2023-11-21T01:35:10;3.80;99.90
15072;DHT22;7635;56.696;13.002;2023-11-21T01:37:37;3.80;99.90
15072;DHT22;7635;56.696;13.002;2023-11-21T01:40:04;3.80;99.90
15072;DHT22;7635;56.696;13.002;2023-11-21T01:42:38;3.80;99.90
15072;DHT22;7635;56.696;13.002;2023-11-21T01:45:06;3.80;99.90
15072;DHT22;7635;56.696;13.002;2023-11-21T01:47:34;3.80;99.90
15072;DHT22;7635;56.696;13.002;2023-11-21T01:50:03;3.80;99.90
15072;DHT22;7635;56.696;13.002;2023-11-21T01:52:31;3.80;99.90
15072;DHT22;7635;56.696;13.002;2023-11-21T01:54:58;3.80;99.90
15072;DHT22;7635;56.696;13.002;2023-11-21T01:57:25;3.80;99.90
15072;DHT22;7635;56.696;13.002;2023-11-21T01:59:54;3.80;99.90
15072;DHT22;7635;56.696;13.002;2023-11-21T02:02:21;3.80;99.90
15072;DHT22;7635;56.696;13.002;2023-11-21T02:04:47;3.80;99.90
15072;DHT22;7635;56.696;13.002;2023-11-21T02:07:15;3.80;99.90
15072;DHT22;7635;56.696;13.002;2023-11-21T02:09:44;3.80;99.90
15072;DHT22;7635;56.696;13.002;2023-11-21T02:12:10;3.80;99.90
15072;DHT22;7635;56.696;13.002;2023-11-21T02:14:37;3.80;99.90
15072;DHT22;7635;56.696;13.002;2023-11-21T02:17:04;3.80;99.90
15072;DHT22;7635;56.696;13.002;2023-11-21T02:19:31;3.80;99.90
15072;DHT22;7635;56.696;13.002;2023-11-21T02:21:59;3.80;99.90
15072;DHT22;7635;56.696;13.002;2023-11-21T02:24:30;3.80;99.90
15072;DHT22;7635;56.696;13.002;2023-11-21T02:26:57;3.80;99.90
15072;DHT22;7635;56.696;13.002;2023-11-21T02:29:24;3.70;99.90
15072;DHT22;7635;56.696;13.002;2023-11-21T02:31:53;3.70;99.90
15072;DHT22;7635;56.696;13.002;2023-11-21T02:34:21;3.70;99.90
15072;DHT22;7635;56.696;13.002;2023-11-21T02:36:48;3.80;99.90
15072;DHT22;7635;56.696;13.002;2023-11-21T02:39:16;3.70;99.90
15072;DHT22;7635;56.696;13.002;2023-11-21T02:41:45;3.70;99.90
15072;DHT22;7635;56.696;13.002;2023-11-21T02:44:11;3.70;99.90
15072;DHT22;7635;56.696;13.002;2023-11-21T02:46:38;3.70;99.90
15072;DHT22;7635;56.696;13.002;2023-11-21T02:49:06;3.70;99.90
15072;DHT22;7635;56.696;13.002;2023-11-21T02:51:33;3.70;99.90
15072;DHT22;7635;56.696;13.002;2023-11-21T02:54:00;3.70;99.90
15072;DHT22;7635;56.696;13.002;2023-11-21T02:56:28;3.70;99.90
15072;DHT22;7635;56.696;13.002;2023-11-21T02:58:56;3.70;99.90
15072;DHT22;7635;56.696;13.002;2023-11-21T03:01:23;3.70;99.90
15072;DHT22;7635;56.696;13.002;2023-11-21T03:03:50;3.70;99.90
15072;DHT22;7635;56.696;13.002;2023-11-21T03:06:17;3.70;99.90
15072;DHT22;7635;56.696;13.002;2023-11-21T03:08:44;3.70;99.90
15072;DHT22;7635;56.696;13.002;2023-11-21T03:11:11;3.70;99.90
15072;DHT22;7635;56.696;13.002;2023-11-21T03:13:38;3.70;99.90
15072;DHT22;7635;56.696;13.002;2023-11-21T03:16:07;3.70;99.90
15072;DHT22;7635;56.696;13.002;2023-11-21T03:18:34;3.70;99.90
15072;DHT22;7635;56.696;13.002;2023-11-21T03:21:01;3.60;99.90
15072;DHT22;7635;56.696;13.002;2023-11-21T03:23:28;3.70;99.90
15072;DHT22;7635;56.696;13.002;2023-11-21T03:25:55;3.70;99.90
15072;DHT22;7635;56.696;13.002;2023-11-21T03:28:21;3.70;99.90
15072;DHT22;7635;56.696;13.002;2023-11-21T03:30:49;3.70;99.90
15072;DHT22;7635;56.696;13.002;2023-11-21T03:33:17;3.60;99.90
15072;DHT22;7635;56.696;13.002;2023-11-21T03:35:43;3.60;99.90
15072;DHT22;7635;56.696;13.002;2023-11-21T03:38:11;3.60;99.90
15072;DHT22;7635;56.696;13.002;2023-11-21T03:40:38;3.70;99.90
15072;DHT22;7635;56.696;13.002;2023-11-21T03:43:05;3.60;99.90
15072;DHT22;7635;56.696;13.002;2023-11-21T03:45:32;3.60;99.90
15072;DHT22;7635;56.696;13.002;2023-11-21T03:47:59;3.60;99.90
15072;DHT22;7635;56.696;13.002;2023-11-21T03:50:28;3.60;99.90
15072;DHT22;7635;56.696;13.002;2023-11-21T03:52:55;3.60;99.90
15072;DHT22;7635;56.696;13.002;2023-11-21T03:55:21;3.60;99.90
15072;DHT22;7635;56.696;13.002;2023-11-21T03:57:49;3.60;99.90
15072;DHT22;7635;56.696;13.002;2023-11-21T04:00:17;3.60;99.90
15072;DHT22;7635;56.696;13.002;2023-11-21T04:02:45;3.60;99.90
15072;DHT22;7635;56.696;13.002;2023-11-21T04:05:13;3.60;99.90
15072;DHT22;7635;56.696;13.002;2023-11-21T04:07:41;3.60;99.90
15072;DHT22;7635;56.696;13.002;2023-11-21T04:10:08;3.60;99.90
15072;DHT22;7635;56.696;13.002;2023-11-21T04:12:37;3.60;99.90
15072;DHT22;7635;56.696;13.002;2023-11-21T04:15:06;3.60;99.90
15072;DHT22;7635;56.696;13.002;2023-11-21T04:17:34;3.60;99.90
15072;DHT22;7635;56.696;13.002;2023-11-21T04:20:02;3.60;99.90
15072;DHT22;7635;56.696;13.002;2023-11-21T04:22:29;3.60;99.90
15072;DHT22;7635;56.696;13.002;2023-11-21T04:24:57;3.60;99.90
15072;DHT22;7635;56.696;13.002;2023-11-21T04:27:23;3.60;99.90
15072;DHT22;7635;56.696;13.002;2023-11-21T04:29:50;3.60;99.90
15072;DHT22;7635;56.696;13.002;2023-11-21T04:32:17;3.60;99.90
15072;DHT22;7635;56.696;13.002;2023-11-21T04:34:43;3.60;99.90
15072;DHT22;7635;56.696;13.002;2023-11-21T04:37:10;3.60;99.90
15072;DHT22;7635;56.696;13.002;2023-11-21T04:39:37;3.60;99.90
15072;DHT22;7635;56.696;13.002;2023-11-21T04:42:05;3.50;99.90
15072;DHT22;7635;56.696;13.002;2023-11-21T04:44:32;3.50;99.90
15072;DHT22;7635;56.696;13.002;2023-11-21T04:46:59;3.50;99.90
15072;DHT22;7635;56.696;13.002;2023-11-21T04:49:25;3.50;99.90
15072;DHT22;7635;56.696;13.002;2023-11-21T04:51:52;3.50;99.90
15072;DHT22;7635;56.696;13.002;2023-11-21T04:54:19;3.50;99.90
15072;DHT22;7635;56.696;13.002;2023-11-21T04:56:45;3.50;99.90
15072;DHT22;7635;56.696;13.002;2023-11-21T04:59:13;3.50;99.90
15072;DHT22;7635;56.696;13.002;2023-11-21T05:01:40;3.50;99.90
15072;DHT22;7635;56.696;13.002;2023-11-21T05:04:07;3.50;99.90
15072;DHT22;7635;56.696;13.002;2023-11-21T05:06:34;3.50;99.90
15072;DHT22;7635;56.696;13.002;2023-11-21T05:09:00;3.40;99.90
15072;DHT22;7635;56.696;13.002;2023-11-21T05:11:28;3.40;99.90
15072;DHT22;7635;56.696;13.002;2023-11-21T05:13:55;3.50;99.90
15072;DHT22;7635;56.696;13.002;2023-11-21T05:16:26;3.40;99.90
15072;DHT22;7635;56.696;13.002;2023-11-21T05:18:53;3.40;99.90
15072;DHT22;7635;56.696;13.002;2023-11-21T05:21:25;3.40;99.90
15072;DHT22;7635;56.696;13.002;2023-11-21T05:23:52;3.40;99.90
15072;DHT22;7635;56.696;13.002;2023-11-21T05:26:19;3.40;99.90
15072;DHT22;7635;56.696;13.002;2023-11-21T05:28:45;3.40;99.90
15072;DHT22;7635;56.696;13.002;2023-11-21T05:31:13;3.40;99.90
15072;DHT22;7635;56.696;13.002;2023-11-21T05:33:41;3.40;99.90
15072;DHT22;7635;56.696;13.002;2023-11-21T05:36:08;3.40;99.90
15072;DHT22;7635;56.696;13.002;2023-11-21T05:38:35;3.40;99.90
15072;DHT22;7635;56.696;13.002;2023-11-21T05:41:02;3.40;99.90
15072;DHT22;7635;56.696;13.002;2023-11-21T05:43:29;3.40;99.90
15072;DHT22;7635;56.696;13.002;2023-11-21T05:45:56;3.40;99.90
15072;DHT22;7635;56.696;13.002;2023-11-21T05:48:23;3.40;99.90
15072;DHT22;7635;56.696;13.002;2023-11-21T05:50:52;3.40;99.90
15072;DHT22;7635;56.696;13.002;2023-11-21T05:53:19;3.40;99.90
15072;DHT22;7635;56.696;13.002;2023-11-21T05:55:45;3.40;99.90
15072;DHT22;7635;56.696;13.002;2023-11-21T05:58:13;3.40;99.90
15072;DHT22;7635;56.696;13.002;2023-11-21T06:00:40;3.40;99.90
15072;DHT22;7635;56.696;13.002;2023-11-21T06:03:07;3.40;99.90
15072;DHT22;7635;56.696;13.002;2023-11-21T06:05:34;3.40;99.90
15072;DHT22;7635;56.696;13.002;2023-11-21T06:08:02;3.40;99.90
15072;DHT22;7635;56.696;13.002;2023-11-21T06:10:29;3.40;99.90
15072;DHT22;7635;56.696;13.002;2023-11-21T06:12:56;3.40;99.90
15072;DHT22;7635;56.696;13.002;2023-11-21T06:15:23;3.40;99.90
15072;DHT22;7635;56.696;13.002;2023-11-21T06:17:50;3.40;99.90
15072;DHT22;7635;56.696;13.002;2023-11-21T06:20:19;3.40;99.90
15072;DHT22;7635;56.696;13.002;2023-11-21T06:22:47;3.40;99.90
15072;DHT22;7635;56.696;13.002;2023-11-21T06:25:15;3.40;99.90
15072;DHT22;7635;56.696;13.002;2023-11-21T06:27:44;3.40;99.90
15072;DHT22;7635;56.696;13.002;2023-11-21T06:30:11;3.40;99.90
15072;DHT22;7635;56.696;13.002;2023-11-21T06:32:39;3.40;99.90
15072;DHT22;7635;56.696;13.002;2023-11-21T06:35:07;3.40;99.90
15072;DHT22;7635;56.696;13.002;2023-11-21T06:37:35;3.40;99.90
15072;DHT22;7635;56.696;13.002;2023-11-21T06:40:02;3.40;99.90
15072;DHT22;7635;56.696;13.002;2023-11-21T06:42:31;3.40;99.90
15072;DHT22;7635;56.696;13.002;2023-11-21T06:44:59;3.40;99.90
15072;DHT22;7635;56.696;13.002;2023-11-21T06:47:29;3.40;99.90
15072;DHT22;7635;56.696;13.002;2023-11-21T06:49:56;3.40;99.90
15072;DHT22;7635;56.696;13.002;2023-11-21T06:52:23;3.40;99.90
15072;DHT22;7635;56.696;13.002;2023-11-21T06:54:50;3.40;99.90
15072;DHT22;7635;56.696;13.002;2023-11-21T06:57:16;3.40;99.90
15072;DHT22;7635;56.696;13.002;2023-11-21T06:59:44;3.40;99.90
15072;DHT22;7635;56.696;13.002;2023-11-21T07:02:11;3.40;99.90
15072;DHT22;7635;56.696;13.002;2023-11-21T07:04:38;3.40;99.90
15072;DHT22;7635;56.696;13.002;2023-11-21T07:07:06;3.40;99.90
15072;DHT22;7635;56.696;13.002;2023-11-21T07:09:33;3.40;99.90
15072;DHT22;7635;56.696;13.002;2023-11-21T07:12:00;3.40;99.90
15072;DHT22;7635;56.696;13.002;2023-11-21T07:14:29;3.40;99.90
15072;DHT22;7635;56.696;13.002;2023-11-21T07:16:57;3.40;99.90
15072;DHT22;7635;56.696;13.002;2023-11-21T07:19:23;3.40;99.90
15072;DHT22;7635;56.696;13.002;2023-11-21T07:21:50;3.40;99.90
15072;DHT22;7635;56.696;13.002;2023-11-21T07:24:17;3.40;99.90
15072;DHT22;7635;56.696;13.002;2023-11-21T07:26:44;3.40;99.90
15072;DHT22;7635;56.696;13.002;2023-11-21T07:29:11;3.40;99.90
15072;DHT22;7635;56.696;13.002;2023-11-21T07:31:38;3.40;99.90
15072;DHT22;7635;56.696;13.002;2023-11-21T07:34:08;3.40;99.90
15072;DHT22;7635;56.696;13.002;2023-11-21T07:36:35;3.40;99.90
15072;DHT22;7635;56.696;13.002;2023-11-21T07:39:02;3.40;99.90
15072;DHT22;7635;56.696;13.002;2023-11-21T07:41:29;3.40;99.90
15072;DHT22;7635;56.696;13.002;2023-11-21T07:43:56;3.40;99.90
15072;DHT22;7635;56.696;13.002;2023-11-21T07:46:22;3.30;99.90
15072;DHT22;7635;56.696;13.002;2023-11-21T07:48:49;3.30;99.90
15072;DHT22;7635;56.696;13.002;2023-11-21T07:51:19;3.30;99.90
15072;DHT22;7635;56.696;13.002;2023-11-21T07:53:45;3.20;99.90
15072;DHT22;7635;56.696;13.002;2023-11-21T07:56:12;3.20;99.90
15072;DHT22;7635;56.696;13.002;2023-11-21T07:58:39;3.20;99.90
15072;DHT22;7635;56.696;13.002;2023-11-21T08:01:06;3.20;99.90
15072;DHT22;7635;56.696;13.002;2023-11-21T08:03:33;3.10;99.90
15072;DHT22;7635;56.696;13.002;2023-11-21T08:06:00;3.10;99.90
15072;DHT22;7635;56.696;13.002;2023-11-21T08:08:30;3.10;99.90
15072;DHT22;7635;56.696;13.002;2023-11-21T08:10:57;3.10;99.90
15072;DHT22;7635;56.696;13.002;2023-11-21T08:13:24;3.20;99.90
15072;DHT22;7635;56.696;13.002;2023-11-21T08:15:54;3.20;99.90
15072;DHT22;7635;56.696;13.002;2023-11-21T08:18:21;3.20;99.90
15072;DHT22;7635;56.696;13.002;2023-11-21T08:20:48;3.10;99.90
15072;DHT22;7635;56.696;13.002;2023-11-21T08:23:14;3.20;99.90
15072;DHT22;7635;56.696;13.002;2023-11-21T08:25:44;3.10;99.90
15072;DHT22;7635;56.696;13.002;2023-11-21T08:28:11;3.20;99.90
15072;DHT22;7635;56.696;13.002;2023-11-21T08:30:38;3.20;99.90
15072;DHT22;7635;56.696;13.002;2023-11-21T08:33:07;3.20;99.90
15072;DHT22;7635;56.696;13.002;2023-11-21T08:35:34;3.20;99.90
15072;DHT22;7635;56.696;13.002;2023-11-21T08:38:01;3.20;99.90
15072;DHT22;7635;56.696;13.002;2023-11-21T08:40:28;3.20;99.90
15072;DHT22;7635;56.696;13.002;2023-11-21T08:42:56;3.20;99.90
15072;DHT22;7635;56.696;13.002;2023-11-21T08:45:24;3.20;99.90
15072;DHT22;7635;56.696;13.002;2023-11-21T08:47:51;3.30;99.90
15072;DHT22;7635;56.696;13.002;2023-11-21T08:50:18;3.30;99.90
15072;DHT22;7635;56.696;13.002;2023-11-21T08:52:45;3.30;99.90
15072;DHT22;7635;56.696;13.002;2023-11-21T08:55:12;3.40;99.90
15072;DHT22;7635;56.696;13.002;2023-11-21T08:57:39;3.40;99.90
15072;DHT22;7635;56.696;13.002;2023-11-21T09:00:09;3.40;99.90
15072;DHT22;7635;56.696;13.002;2023-11-21T09:02:37;3.50;99.90
15072;DHT22;7635;56.696;13.002;2023-11-21T09:05:04;3.50;99.90
15072;DHT22;7635;56.696;13.002;2023-11-21T09:07:32;3.50;99.90
15072;DHT22;7635;56.696;13.002;2023-11-21T09:09:58;3.60;99.90
15072;DHT22;7635;56.696;13.002;2023-11-21T09:12:25;3.60;99.90
15072;DHT22;7635;56.696;13.002;2023-11-21T09:14:52;3.70;99.90
15072;DHT22;7635;56.696;13.002;2023-11-21T09:17:20;3.70;99.90
15072;DHT22;7635;56.696;13.002;2023-11-21T09:19:46;3.70;99.90
15072;DHT22;7635;56.696;13.002;2023-11-21T09:22:16;3.80;99.90
15072;DHT22;7635;56.696;13.002;2023-11-21T09:24:43;3.80;99.90
15072;DHT22;7635;56.696;13.002;2023-11-21T09:27:10;3.80;99.90
15072;DHT22;7635;56.696;13.002;2023-11-21T09:29:37;3.90;99.90
15072;DHT22;7635;56.696;13.002;2023-11-21T09:32:04;3.90;99.90
15072;DHT22;7635;56.696;13.002;2023-11-21T09:34:33;3.90;99.90
15072;DHT22;7635;56.696;13.002;2023-11-21T09:37:01;3.90;99.90
15072;DHT22;7635;56.696;13.002;2023-11-21T09:39:31;3.90;99.90
15072;DHT22;7635;56.696;13.002;2023-11-21T09:42:04;3.90;99.90
15072;DHT22;7635;56.696;13.002;2023-11-21T09:44:42;3.90;99.90
15072;DHT22;7635;56.696;13.002;2023-11-21T09:47:10;3.80;99.90
15072;DHT22;7635;56.696;13.002;2023-11-21T09:49:43;3.80;99.90
15072;DHT22;7635;56.696;13.002;2023-11-21T09:52:18;3.80;99.90
15072;DHT22;7635;56.696;13.002;2023-11-21T09:54:45;3.90;99.90
15072;DHT22;7635;56.696;13.002;2023-11-21T09:57:13;3.80;99.90
15072;DHT22;7635;56.696;13.002;2023-11-21T09:59:41;3.80;99.90
15072;DHT22;7635;56.696;13.002;2023-11-21T10:02:09;3.80;99.90
15072;DHT22;7635;56.696;13.002;2023-11-21T10:04:38;3.90;99.90
15072;DHT22;7635;56.696;13.002;2023-11-21T10:07:06;3.90;99.90
15072;DHT22;7635;56.696;13.002;2023-11-21T10:09:35;3.90;99.90
15072;DHT22;7635;56.696;13.002;2023-11-21T10:12:04;4.00;99.90
15072;DHT22;7635;56.696;13.002;2023-11-21T10:14:34;3.90;99.90
15072;DHT22;7635;56.696;13.002;2023-11-21T10:17:03;4.00;99.90
15072;DHT22;7635;56.696;13.002;2023-11-21T10:19:31;4.00;99.90
15072;DHT22;7635;56.696;13.002;2023-11-21T10:21:58;4.00;99.90
15072;DHT22;7635;56.696;13.002;2023-11-21T10:24:28;4.00;99.90
15072;DHT22;7635;56.696;13.002;2023-11-21T10:26:55;4.00;99.90
15072;DHT22;7635;56.696;13.002;2023-11-21T10:29:21;4.00;99.90
15072;DHT22;7635;56.696;13.002;2023-11-21T10:31:49;4.10;99.90
15072;DHT22;7635;56.696;13.002;2023-11-21T10:34:17;4.10;99.90
15072;DHT22;7635;56.696;13.002;2023-11-21T10:36:45;4.10;99.90
15072;DHT22;7635;56.696;13.002;2023-11-21T10:39:14;4.10;99.90
15072;DHT22;7635;56.696;13.002;2023-11-21T10:41:45;4.10;99.90
15072;DHT22;7635;56.696;13.002;2023-11-21T10:44:14;4.10;99.90
15072;DHT22;7635;56.696;13.002;2023-11-21T10:46:45;4.10;99.90
15072;DHT22;7635;56.696;13.002;2023-11-21T10:49:16;4.10;99.90
15072;DHT22;7635;56.696;13.002;2023-11-21T10:51:43;4.10;99.90
15072;DHT22;7635;56.696;13.002;2023-11-21T10:54:10;4.20;99.90
15072;DHT22;7635;56.696;13.002;2023-11-21T10:56:39;4.20;99.90
15072;DHT22;7635;56.696;13.002;2023-11-21T10:59:10;4.20;99.90
15072;DHT22;7635;56.696;13.002;2023-11-21T11:01:40;4.20;99.90
15072;DHT22;7635;56.696;13.002;2023-11-21T11:04:09;4.30;99.90
15072;DHT22;7635;56.696;13.002;2023-11-21T11:06:41;4.20;99.90
15072;DHT22;7635;56.696;13.002;2023-11-21T11:09:08;4.30;99.90
15072;DHT22;7635;56.696;13.002;2023-11-21T11:11:38;4.30;99.90
15072;DHT22;7635;56.696;13.002;2023-11-21T11:14:07;4.30;99.90
15072;DHT22;7635;56.696;13.002;2023-11-21T11:16:36;4.20;99.90
15072;DHT22;7635;56.696;13.002;2023-11-21T11:19:05;4.20;99.90
15072;DHT22;7635;56.696;13.002;2023-11-21T11:21:42;4.20;99.90
15072;DHT22;7635;56.696;13.002;2023-11-21T11:24:21;4.20;99.90
15072;DHT22;7635;56.696;13.002;2023-11-21T11:26:56;4.20;99.90
15072;DHT22;7635;56.696;13.002;2023-11-21T11:29:31;4.20;99.90
15072;DHT22;7635;56.696;13.002;2023-11-21T11:32:09;4.20;99.90
15072;DHT22;7635;56.696;13.002;2023-11-21T11:34:44;4.20;99.90
15072;DHT22;7635;56.696;13.002;2023-11-21T11:37:12;4.20;99.90
15072;DHT22;7635;56.696;13.002;2023-11-21T11:39:40;4.20;99.90
15072;DHT22;7635;56.696;13.002;2023-11-21T11:42:12;4.20;99.90
15072;DHT22;7635;56.696;13.002;2023-11-21T11:44:52;4.20;99.90
15072;DHT22;7635;56.696;13.002;2023-11-21T11:47:23;4.20;99.90
15072;DHT22;7635;56.696;13.002;2023-11-21T11:50:06;4.20;99.90
15072;DHT22;7635;56.696;13.002;2023-11-21T11:52:38;4.20;99.90
15072;DHT22;7635;56.696;13.002;2023-11-21T11:55:07;4.20;99.90
15072;DHT22;7635;56.696;13.002;2023-11-21T11:57:36;4.20;99.90
15072;DHT22;7635;56.696;13.002;2023-11-21T12:00:33;4.20;99.90
15072;DHT22;7635;56.696;13.002;2023-11-21T12:03:05;4.20;99.90
15072;DHT22;7635;56.696;13.002;2023-11-21T12:05:33;4.20;99.90
15072;DHT22;7635;56.696;13.002;2023-11-21T12:08:05;4.20;99.90
15072;DHT22;7635;56.696;13.002;2023-11-21T12:10:33;4.20;99.90
15072;DHT22;7635;56.696;13.002;2023-11-21T12:13:02;4.30;99.90
15072;DHT22;7635;56.696;13.002;2023-11-21T12:15:31;4.20;99.90
15072;DHT22;7635;56.696;13.002;2023-11-21T12:17:58;4.30;99.90
15072;DHT22;7635;56.696;13.002;2023-11-21T12:20:27;4.30;99.90
15072;DHT22;7635;56.696;13.002;2023-11-21T12:22:55;4.30;99.90
15072;DHT22;7635;56.696;13.002;2023-11-21T12:25:22;4.30;99.90
15072;DHT22;7635;56.696;13.002;2023-11-21T12:27:51;4.30;99.90
15072;DHT22;7635;56.696;13.002;2023-11-21T12:30:19;4.30;99.90
15072;DHT22;7635;56.696;13.002;2023-11-21T12:32:49;4.30;99.90
15072;DHT22;7635;56.696;13.002;2023-11-21T12:35:17;4.30;99.90
15072;DHT22;7635;56.696;13.002;2023-11-21T12:37:46;4.30;99.90
15072;DHT22;7635;56.696;13.002;2023-11-21T12:40:13;4.30;99.90
15072;DHT22;7635;56.696;13.002;2023-11-21T12:42:42;4.30;99.90
15072;DHT22;7635;56.696;13.002;2023-11-21T12:45:18;4.30;99.90
15072;DHT22;7635;56.696;13.002;2023-11-21T12:47:47;4.30;99.90
15072;DHT22;7635;56.696;13.002;2023-11-21T12:50:14;4.20;99.90
15072;DHT22;7635;56.696;13.002;2023-11-21T12:52:42;4.30;99.90
15072;DHT22;7635;56.696;13.002;2023-11-21T12:55:16;4.20;99.90
15072;DHT22;7635;56.696;13.002;2023-11-21T12:57:43;4.20;99.90
15072;DHT22;7635;56.696;13.002;2023-11-21T13:00:12;4.20;99.90
15072;DHT22;7635;56.696;13.002;2023-11-21T13:02:51;4.20;99.90
15072;DHT22;7635;56.696;13.002;2023-11-21T13:05:26;4.20;99.90
15072;DHT22;7635;56.696;13.002;2023-11-21T13:07:54;4.20;99.90
15072;DHT22;7635;56.696;13.002;2023-11-21T13:10:25;4.20;99.90
15072;DHT22;7635;56.696;13.002;2023-11-21T13:12:52;4.20;99.90
15072;DHT22;7635;56.696;13.002;2023-11-21T13:15:20;4.20;99.90
15072;DHT22;7635;56.696;13.002;2023-11-21T13:17:47;4.20;99.90
15072;DHT22;7635;56.696;13.002;2023-11-21T13:20:14;4.20;99.90
15072;DHT22;7635;56.696;13.002;2023-11-21T13:22:46;4.20;99.90
15072;DHT22;7635;56.696;13.002;2023-11-21T13:25:14;4.20;99.90
15072;DHT22;7635;56.696;13.002;2023-11-21T13:27:44;4.20;99.90
15072;DHT22;7635;56.696;13.002;2023-11-21T13:30:12;4.20;99.90
15072;DHT22;7635;56.696;13.002;2023-11-21T13:32:42;4.20;99.90
15072;DHT22;7635;56.696;13.002;2023-11-21T13:35:09;4.20;99.90
15072;DHT22;7635;56.696;13.002;2023-11-21T13:37:47;4.20;99.90
15072;DHT22;7635;56.696;13.002;2023-11-21T13:40:14;4.20;99.90
15072;DHT22;7635;56.696;13.002;2023-11-21T13:42:46;4.10;99.90
15072;DHT22;7635;56.696;13.002;2023-11-21T13:45:13;4.10;99.90
15072;DHT22;7635;56.696;13.002;2023-11-21T13:47:40;4.10;99.90
15072;DHT22;7635;56.696;13.002;2023-11-21T13:50:07;4.10;99.90
15072;DHT22;7635;56.696;13.002;2023-11-21T13:52:48;4.10;99.90
15072;DHT22;7635;56.696;13.002;2023-11-21T13:55:14;4.10;99.90
15072;DHT22;7635;56.696;13.002;2023-11-21T13:57:42;4.10;99.90
15072;DHT22;7635;56.696;13.002;2023-11-21T14:00:14;4.00;99.90
15072;DHT22;7635;56.696;13.002;2023-11-21T14:03:02;4.00;99.90
15072;DHT22;7635;56.696;13.002;2023-11-21T14:05:33;4.00;99.90
15072;DHT22;7635;56.696;13.002;2023-11-21T14:08:00;4.00;99.90
15072;DHT22;7635;56.696;13.002;2023-11-21T14:10:30;4.00;99.90
15072;DHT22;7635;56.696;13.002;2023-11-21T14:13:05;3.90;99.90
15072;DHT22;7635;56.696;13.002;2023-11-21T14:15:33;3.90;99.90
15072;DHT22;7635;56.696;13.002;2023-11-21T14:18:04;3.90;99.90
15072;DHT22;7635;56.696;13.002;2023-11-21T14:20:33;3.90;99.90
15072;DHT22;7635;56.696;13.002;2023-11-21T14:23:01;3.90;99.90
15072;DHT22;7635;56.696;13.002;2023-11-21T14:25:28;3.80;99.90
15072;DHT22;7635;56.696;13.002;2023-11-21T14:27:55;3.80;99.90
15072;DHT22;7635;56.696;13.002;2023-11-21T14:30:22;3.90;99.90
15072;DHT22;7635;56.696;13.002;2023-11-21T14:32:50;3.80;99.90
15072;DHT22;7635;56.696;13.002;2023-11-21T14:35:17;3.80;99.90
15072;DHT22;7635;56.696;13.002;2023-11-21T14:37:44;3.80;99.90
15072;DHT22;7635;56.696;13.002;2023-11-21T14:40:12;3.80;99.90
15072;DHT22;7635;56.696;13.002;2023-11-21T14:42:41;3.70;99.90
15072;DHT22;7635;56.696;13.002;2023-11-21T14:45:09;3.70;99.90
15072;DHT22;7635;56.696;13.002;2023-11-21T14:47:37;3.70;99.90
15072;DHT22;7635;56.696;13.002;2023-11-21T14:50:11;3.70;99.90
15072;DHT22;7635;56.696;13.002;2023-11-21T14:53:04;3.70;99.90
15072;DHT22;7635;56.696;13.002;2023-11-21T14:55:32;3.60;99.90
15072;DHT22;7635;56.696;13.002;2023-11-21T14:58:04;3.60;99.90
15072;DHT22;7635;56.696;13.002;2023-11-21T15:00:31;3.60;99.90
15072;DHT22;7635;56.696;13.002;2023-11-21T15:03:07;3.60;99.90
15072;DHT22;7635;56.696;13.002;2023-11-21T15:05:35;3.60;99.90
15072;DHT22;7635;56.696;13.002;2023-11-21T15:08:05;3.50;99.90
15072;DHT22;7635;56.696;13.002;2023-11-21T15:10:42;3.50;99.90
15072;DHT22;7635;56.696;13.002;2023-11-21T15:13:14;3.50;99.90
15072;DHT22;7635;56.696;13.002;2023-11-21T15:15:40;3.50;99.90
15072;DHT22;7635;56.696;13.002;2023-11-21T15:18:07;3.40;99.90
15072;DHT22;7635;56.696;13.002;2023-11-21T15:20:37;3.50;99.90
15072;DHT22;7635;56.696;13.002;2023-11-21T15:23:05;3.40;99.90
15072;DHT22;7635;56.696;13.002;2023-11-21T15:25:32;3.40;99.90
15072;DHT22;7635;56.696;13.002;2023-11-21T15:27:59;3.40;99.90
15072;DHT22;7635;56.696;13.002;2023-11-21T15:30:26;3.30;99.90
15072;DHT22;7635;56.696;13.002;2023-11-21T15:32:53;3.30;99.90
15072;DHT22;7635;56.696;13.002;2023-11-21T15:35:20;3.30;99.90
15072;DHT22;7635;56.696;13.002;2023-11-21T15:37:47;3.30;99.90
15072;DHT22;7635;56.696;13.002;2023-11-21T15:40:15;3.30;99.90
15072;DHT22;7635;56.696;13.002;2023-11-21T15:42:43;3.30;99.90
15072;DHT22;7635;56.696;13.002;2023-11-21T15:45:10;3.30;99.90
15072;DHT22;7635;56.696;13.002;2023-11-21T15:47:37;3.30;99.90
15072;DHT22;7635;56.696;13.002;2023-11-21T15:50:05;3.30;99.90
15072;DHT22;7635;56.696;13.002;2023-11-21T15:52:35;3.20;99.90